Terminal Aerodrome Forecast
Issued by NWS

Home | Current Version | Previous Version | Text Only | Print | Product List | Glossary On
Versions: 1 2 3 4 5 6 7 8 9 10 11 12 13 14 15 16 17
000
FTUS45 KBYZ 241720
TAFLVM
TAF
KLVM 241720Z 2418/2518 22019G30KT P6SM SCT200
     FM242100 22025G37KT P6SM BKN150
     FM251200 26015KT P6SM VCSH BKN080=

USA.gov is the U.S. government's official web portal to all federal, state and local government web resources and services.